Carson City, Nevada
Current Conditions -  °F | °C
As of 7:55 PM on Wednesday 28 Jan 2015 (Local Time) from KCXP Reporting Station
Clear Clear  
Wind Chill: 43°   Ceiling: Unl
Heat Index: 43°   Visibility: 10mi
Dew Point: 30°   Wind: 3mph
Humidity: 61%   Direction: 110°ESE
Pressure: 30.3"   Gusts: NA
Location:  39.16°N, 119.77°W
Report Text: KCXP 290355Z AUTO 11003KT 10SM CLR 06/M01 A3030 RMK AO2
Loading
Personal Weather Stations






























Interactive Weather Map New forecast layout! Learn more

10-Day Weather Forecast

Advertisements
Track Severe Weather on mobile